sensor_id;sensor_type;location;lat;lon;timestamp;P1;durP1;ratioP1;P2;durP2;ratioP2
32533;SDS011;18973;48.580;8.912;2023-04-25T00:00:52;7.40;;;4.50;;
32533;SDS011;18973;48.580;8.912;2023-04-25T00:03:18;4.25;;;3.78;;
32533;SDS011;18973;48.580;8.912;2023-04-25T00:05:44;6.95;;;4.32;;
32533;SDS011;18973;48.580;8.912;2023-04-25T00:08:10;8.52;;;3.80;;
32533;SDS011;18973;48.580;8.912;2023-04-25T00:10:36;6.18;;;4.05;;
32533;SDS011;18973;48.580;8.912;2023-04-25T00:13:02;5.80;;;4.18;;
32533;SDS011;18973;48.580;8.912;2023-04-25T00:15:28;6.28;;;3.88;;
32533;SDS011;18973;48.580;8.912;2023-04-25T00:17:57;4.00;;;3.63;;
32533;SDS011;18973;48.580;8.912;2023-04-25T00:20:22;5.55;;;3.90;;
32533;SDS011;18973;48.580;8.912;2023-04-25T00:22:49;9.82;;;4.25;;
32533;SDS011;18973;48.580;8.912;2023-04-25T00:25:16;6.75;;;4.07;;
32533;SDS011;18973;48.580;8.912;2023-04-25T00:27:41;10.35;;;4.53;;
32533;SDS011;18973;48.580;8.912;2023-04-25T00:30:07;5.45;;;4.15;;
32533;SDS011;18973;48.580;8.912;2023-04-25T00:32:33;4.97;;;3.88;;
32533;SDS011;18973;48.580;8.912;2023-04-25T00:34:59;9.25;;;4.75;;
32533;SDS011;18973;48.580;8.912;2023-04-25T00:37:25;5.45;;;3.90;;
32533;SDS011;18973;48.580;8.912;2023-04-25T00:39:50;4.55;;;4.15;;
32533;SDS011;18973;48.580;8.912;2023-04-25T00:42:18;6.68;;;4.57;;
32533;SDS011;18973;48.580;8.912;2023-04-25T00:44:44;5.38;;;4.28;;
32533;SDS011;18973;48.580;8.912;2023-04-25T00:47:10;8.73;;;4.45;;
32533;SDS011;18973;48.580;8.912;2023-04-25T00:49:36;5.82;;;4.78;;
32533;SDS011;18973;48.580;8.912;2023-04-25T00:52:02;5.00;;;3.67;;
32533;SDS011;18973;48.580;8.912;2023-04-25T00:54:27;7.45;;;4.53;;
32533;SDS011;18973;48.580;8.912;2023-04-25T00:56:55;5.32;;;4.20;;
32533;SDS011;18973;48.580;8.912;2023-04-25T00:59:20;4.72;;;4.03;;
32533;SDS011;18973;48.580;8.912;2023-04-25T01:01:46;5.00;;;4.38;;
32533;SDS011;18973;48.580;8.912;2023-04-25T01:04:12;8.23;;;4.68;;
32533;SDS011;18973;48.580;8.912;2023-04-25T01:06:38;11.65;;;4.70;;
32533;SDS011;18973;48.580;8.912;2023-04-25T01:09:05;7.28;;;4.00;;
32533;SDS011;18973;48.580;8.912;2023-04-25T01:11:32;7.68;;;4.53;;
32533;SDS011;18973;48.580;8.912;2023-04-25T01:13:58;6.15;;;4.20;;
32533;SDS011;18973;48.580;8.912;2023-04-25T01:16:24;6.55;;;4.35;;
32533;SDS011;18973;48.580;8.912;2023-04-25T01:18:49;4.97;;;4.28;;
32533;SDS011;18973;48.580;8.912;2023-04-25T01:21:16;4.15;;;3.50;;
32533;SDS011;18973;48.580;8.912;2023-04-25T01:23:42;7.70;;;4.00;;
32533;SDS011;18973;48.580;8.912;2023-04-25T01:26:08;5.97;;;3.80;;
32533;SDS011;18973;48.580;8.912;2023-04-25T01:28:35;5.68;;;3.90;;
32533;SDS011;18973;48.580;8.912;2023-04-25T01:31:01;7.82;;;4.00;;
32533;SDS011;18973;48.580;8.912;2023-04-25T01:33:27;4.63;;;4.00;;
32533;SDS011;18973;48.580;8.912;2023-04-25T01:35:54;5.78;;;3.88;;
32533;SDS011;18973;48.580;8.912;2023-04-25T01:38:20;6.63;;;4.43;;
32533;SDS011;18973;48.580;8.912;2023-04-25T01:40:45;5.30;;;3.83;;
32533;SDS011;18973;48.580;8.912;2023-04-25T01:43:14;4.60;;;4.05;;
32533;SDS011;18973;48.580;8.912;2023-04-25T01:45:41;8.95;;;3.95;;
32533;SDS011;18973;48.580;8.912;2023-04-25T01:48:08;6.07;;;4.68;;
32533;SDS011;18973;48.580;8.912;2023-04-25T01:50:34;6.07;;;3.88;;
32533;SDS011;18973;48.580;8.912;2023-04-25T01:53:00;6.25;;;4.35;;
32533;SDS011;18973;48.580;8.912;2023-04-25T01:55:27;9.60;;;4.57;;
32533;SDS011;18973;48.580;8.912;2023-04-25T01:57:53;5.80;;;3.85;;
32533;SDS011;18973;48.580;8.912;2023-04-25T02:00:18;7.95;;;4.25;;
32533;SDS011;18973;48.580;8.912;2023-04-25T02:02:44;7.05;;;4.10;;
32533;SDS011;18973;48.580;8.912;2023-04-25T02:05:10;6.03;;;4.18;;
32533;SDS011;18973;48.580;8.912;2023-04-25T02:07:36;5.85;;;4.63;;
32533;SDS011;18973;48.580;8.912;2023-04-25T02:10:02;5.40;;;3.80;;
32533;SDS011;18973;48.580;8.912;2023-04-25T02:12:28;7.00;;;5.10;;
32533;SDS011;18973;48.580;8.912;2023-04-25T02:14:56;6.57;;;4.50;;
32533;SDS011;18973;48.580;8.912;2023-04-25T02:17:22;6.45;;;4.55;;
32533;SDS011;18973;48.580;8.912;2023-04-25T02:19:48;6.68;;;4.13;;
32533;SDS011;18973;48.580;8.912;2023-04-25T02:22:15;10.57;;;4.38;;
32533;SDS011;18973;48.580;8.912;2023-04-25T02:24:40;12.30;;;4.20;;
32533;SDS011;18973;48.580;8.912;2023-04-25T02:27:06;7.68;;;4.47;;
32533;SDS011;18973;48.580;8.912;2023-04-25T02:29:32;6.00;;;4.15;;
32533;SDS011;18973;48.580;8.912;2023-04-25T02:31:58;6.53;;;4.32;;
32533;SDS011;18973;48.580;8.912;2023-04-25T02:34:24;3.80;;;3.47;;
32533;SDS011;18973;48.580;8.912;2023-04-25T02:36:50;5.63;;;3.83;;
32533;SDS011;18973;48.580;8.912;2023-04-25T02:39:16;7.80;;;4.20;;
32533;SDS011;18973;48.580;8.912;2023-04-25T02:41:42;5.80;;;4.03;;
32533;SDS011;18973;48.580;8.912;2023-04-25T02:44:07;6.45;;;3.55;;
32533;SDS011;18973;48.580;8.912;2023-04-25T02:46:33;7.57;;;3.80;;
32533;SDS011;18973;48.580;8.912;2023-04-25T02:48:59;3.90;;;3.58;;
32533;SDS011;18973;48.580;8.912;2023-04-25T02:51:24;5.53;;;3.60;;
32533;SDS011;18973;48.580;8.912;2023-04-25T02:53:51;4.88;;;3.40;;
32533;SDS011;18973;48.580;8.912;2023-04-25T02:56:17;6.22;;;3.90;;
32533;SDS011;18973;48.580;8.912;2023-04-25T02:58:42;4.90;;;3.70;;
32533;SDS011;18973;48.580;8.912;2023-04-25T03:01:10;5.97;;;3.60;;
32533;SDS011;18973;48.580;8.912;2023-04-25T03:03:36;4.47;;;3.80;;
32533;SDS011;18973;48.580;8.912;2023-04-25T03:06:01;5.07;;;3.80;;
32533;SDS011;18973;48.580;8.912;2023-04-25T03:08:27;3.65;;;3.22;;
32533;SDS011;18973;48.580;8.912;2023-04-25T03:10:57;6.78;;;3.45;;
32533;SDS011;18973;48.580;8.912;2023-04-25T03:13:23;7.97;;;4.30;;
32533;SDS011;18973;48.580;8.912;2023-04-25T03:15:49;5.13;;;3.50;;
32533;SDS011;18973;48.580;8.912;2023-04-25T03:18:15;6.93;;;3.58;;
32533;SDS011;18973;48.580;8.912;2023-04-25T03:20:40;5.70;;;3.97;;
32533;SDS011;18973;48.580;8.912;2023-04-25T03:23:07;5.03;;;3.40;;
32533;SDS011;18973;48.580;8.912;2023-04-25T03:25:32;7.13;;;3.58;;
32533;SDS011;18973;48.580;8.912;2023-04-25T03:27:58;6.15;;;4.38;;
32533;SDS011;18973;48.580;8.912;2023-04-25T03:30:24;6.70;;;3.80;;
32533;SDS011;18973;48.580;8.912;2023-04-25T03:32:50;9.23;;;3.95;;
32533;SDS011;18973;48.580;8.912;2023-04-25T03:35:15;8.13;;;4.50;;
32533;SDS011;18973;48.580;8.912;2023-04-25T03:37:41;9.80;;;4.47;;
32533;SDS011;18973;48.580;8.912;2023-04-25T03:40:10;6.55;;;4.25;;
32533;SDS011;18973;48.580;8.912;2023-04-25T03:42:36;8.40;;;4.78;;
32533;SDS011;18973;48.580;8.912;2023-04-25T03:45:02;9.90;;;4.88;;
32533;SDS011;18973;48.580;8.912;2023-04-25T03:47:28;6.53;;;4.93;;
32533;SDS011;18973;48.580;8.912;2023-04-25T03:49:54;9.13;;;4.53;;
32533;SDS011;18973;48.580;8.912;2023-04-25T03:52:20;9.15;;;4.45;;
32533;SDS011;18973;48.580;8.912;2023-04-25T03:54:45;13.93;;;5.18;;
32533;SDS011;18973;48.580;8.912;2023-04-25T03:57:11;8.70;;;5.03;;
32533;SDS011;18973;48.580;8.912;2023-04-25T03:59:37;4.93;;;4.07;;
32533;SDS011;18973;48.580;8.912;2023-04-25T04:02:03;4.63;;;4.13;;
32533;SDS011;18973;48.580;8.912;2023-04-25T04:04:28;8.13;;;4.50;;
32533;SDS011;18973;48.580;8.912;2023-04-25T04:06:55;7.20;;;4.18;;
32533;SDS011;18973;48.580;8.912;2023-04-25T04:09:20;11.00;;;5.50;;
32533;SDS011;18973;48.580;8.912;2023-04-25T04:11:46;9.70;;;5.32;;
32533;SDS011;18973;48.580;8.912;2023-04-25T04:14:15;6.65;;;4.68;;
32533;SDS011;18973;48.580;8.912;2023-04-25T04:16:40;8.48;;;4.35;;
32533;SDS011;18973;48.580;8.912;2023-04-25T04:19:06;8.23;;;5.07;;
32533;SDS011;18973;48.580;8.912;2023-04-25T04:21:32;9.13;;;5.18;;
32533;SDS011;18973;48.580;8.912;2023-04-25T04:23:58;14.70;;;5.75;;
32533;SDS011;18973;48.580;8.912;2023-04-25T04:26:25;11.25;;;6.00;;
32533;SDS011;18973;48.580;8.912;2023-04-25T04:28:51;9.73;;;5.50;;
32533;SDS011;18973;48.580;8.912;2023-04-25T04:31:19;9.18;;;5.22;;
32533;SDS011;18973;48.580;8.912;2023-04-25T04:33:46;8.02;;;5.28;;
32533;SDS011;18973;48.580;8.912;2023-04-25T04:36:12;9.73;;;5.05;;
32533;SDS011;18973;48.580;8.912;2023-04-25T04:38:38;9.85;;;4.63;;
32533;SDS011;18973;48.580;8.912;2023-04-25T04:41:06;8.45;;;4.13;;
32533;SDS011;18973;48.580;8.912;2023-04-25T04:43:32;5.78;;;4.22;;
32533;SDS011;18973;48.580;8.912;2023-04-25T04:45:58;4.25;;;3.85;;
32533;SDS011;18973;48.580;8.912;2023-04-25T04:48:25;10.60;;;4.68;;
32533;SDS011;18973;48.580;8.912;2023-04-25T04:50:51;7.45;;;4.78;;
32533;SDS011;18973;48.580;8.912;2023-04-25T04:53:17;7.25;;;4.43;;
32533;SDS011;18973;48.580;8.912;2023-04-25T04:55:43;9.05;;;4.57;;
32533;SDS011;18973;48.580;8.912;2023-04-25T04:58:09;10.30;;;4.38;;
32533;SDS011;18973;48.580;8.912;2023-04-25T05:00:35;5.75;;;4.53;;
32533;SDS011;18973;48.580;8.912;2023-04-25T05:03:00;10.30;;;4.57;;
32533;SDS011;18973;48.580;8.912;2023-04-25T05:05:26;7.28;;;4.22;;
32533;SDS011;18973;48.580;8.912;2023-04-25T05:07:52;5.22;;;4.50;;
32533;SDS011;18973;48.580;8.912;2023-04-25T05:10:18;7.40;;;4.28;;
32533;SDS011;18973;48.580;8.912;2023-04-25T05:12:44;8.85;;;4.53;;
32533;SDS011;18973;48.580;8.912;2023-04-25T05:15:10;9.35;;;5.07;;
32533;SDS011;18973;48.580;8.912;2023-04-25T05:17:36;6.78;;;4.90;;
32533;SDS011;18973;48.580;8.912;2023-04-25T05:20:02;5.65;;;4.57;;
32533;SDS011;18973;48.580;8.912;2023-04-25T05:22:28;8.73;;;5.03;;
32533;SDS011;18973;48.580;8.912;2023-04-25T05:24:53;6.68;;;4.20;;
32533;SDS011;18973;48.580;8.912;2023-04-25T05:27:19;7.47;;;4.78;;
32533;SDS011;18973;48.580;8.912;2023-04-25T05:29:45;6.65;;;4.45;;
32533;SDS011;18973;48.580;8.912;2023-04-25T05:32:11;4.88;;;4.15;;
32533;SDS011;18973;48.580;8.912;2023-04-25T05:34:36;14.20;;;4.30;;
32533;SDS011;18973;48.580;8.912;2023-04-25T05:37:02;7.47;;;4.20;;
32533;SDS011;18973;48.580;8.912;2023-04-25T05:39:28;8.55;;;4.78;;
32533;SDS011;18973;48.580;8.912;2023-04-25T05:41:54;4.78;;;3.80;;
32533;SDS011;18973;48.580;8.912;2023-04-25T05:44:20;5.07;;;3.13;;
32533;SDS011;18973;48.580;8.912;2023-04-25T05:46:46;5.13;;;3.53;;
32533;SDS011;18973;48.580;8.912;2023-04-25T05:49:12;7.28;;;3.40;;
32533;SDS011;18973;48.580;8.912;2023-04-25T05:51:41;5.75;;;3.03;;
32533;SDS011;18973;48.580;8.912;2023-04-25T05:54:06;8.77;;;3.22;;
32533;SDS011;18973;48.580;8.912;2023-04-25T05:56:32;7.00;;;4.15;;
32533;SDS011;18973;48.580;8.912;2023-04-25T05:58:58;5.18;;;3.80;;
32533;SDS011;18973;48.580;8.912;2023-04-25T06:01:23;4.30;;;2.75;;
32533;SDS011;18973;48.580;8.912;2023-04-25T06:03:49;3.05;;;2.55;;
32533;SDS011;18973;48.580;8.912;2023-04-25T06:06:17;7.30;;;2.17;;
32533;SDS011;18973;48.580;8.912;2023-04-25T06:08:43;9.48;;;2.55;;
32533;SDS011;18973;48.580;8.912;2023-04-25T06:11:10;4.25;;;3.38;;
32533;SDS011;18973;48.580;8.912;2023-04-25T06:13:35;7.32;;;3.60;;
32533;SDS011;18973;48.580;8.912;2023-04-25T06:16:01;6.90;;;3.10;;
32533;SDS011;18973;48.580;8.912;2023-04-25T06:18:29;3.58;;;2.95;;
32533;SDS011;18973;48.580;8.912;2023-04-25T06:20:55;6.88;;;2.88;;
32533;SDS011;18973;48.580;8.912;2023-04-25T06:23:21;3.67;;;2.60;;
32533;SDS011;18973;48.580;8.912;2023-04-25T06:25:47;5.15;;;3.00;;
32533;SDS011;18973;48.580;8.912;2023-04-25T06:28:12;6.15;;;3.33;;
32533;SDS011;18973;48.580;8.912;2023-04-25T06:30:38;4.97;;;3.83;;
32533;SDS011;18973;48.580;8.912;2023-04-25T06:33:07;6.70;;;4.40;;
32533;SDS011;18973;48.580;8.912;2023-04-25T06:35:33;4.20;;;3.80;;
32533;SDS011;18973;48.580;8.912;2023-04-25T06:38:02;4.28;;;2.78;;
32533;SDS011;18973;48.580;8.912;2023-04-25T06:40:28;4.55;;;3.00;;
32533;SDS011;18973;48.580;8.912;2023-04-25T06:42:55;5.05;;;3.47;;
32533;SDS011;18973;48.580;8.912;2023-04-25T06:45:21;7.30;;;3.33;;
32533;SDS011;18973;48.580;8.912;2023-04-25T06:47:47;4.97;;;3.10;;
32533;SDS011;18973;48.580;8.912;2023-04-25T06:50:12;6.60;;;3.03;;
32533;SDS011;18973;48.580;8.912;2023-04-25T06:52:38;8.32;;;3.90;;
32533;SDS011;18973;48.580;8.912;2023-04-25T06:55:03;4.30;;;3.67;;
32533;SDS011;18973;48.580;8.912;2023-04-25T06:57:30;8.23;;;4.05;;
32533;SDS011;18973;48.580;8.912;2023-04-25T06:59:56;11.68;;;4.15;;
32533;SDS011;18973;48.580;8.912;2023-04-25T07:02:21;9.60;;;4.43;;
32533;SDS011;18973;48.580;8.912;2023-04-25T07:04:47;7.68;;;3.78;;
32533;SDS011;18973;48.580;8.912;2023-04-25T07:07:16;5.10;;;3.80;;
32533;SDS011;18973;48.580;8.912;2023-04-25T07:09:45;4.95;;;3.50;;
32533;SDS011;18973;48.580;8.912;2023-04-25T07:12:13;8.68;;;3.80;;
32533;SDS011;18973;48.580;8.912;2023-04-25T07:14:42;4.05;;;3.35;;
32533;SDS011;18973;48.580;8.912;2023-04-25T07:17:07;8.68;;;3.92;;
32533;SDS011;18973;48.580;8.912;2023-04-25T07:19:36;8.35;;;4.40;;
32533;SDS011;18973;48.580;8.912;2023-04-25T07:22:03;4.20;;;3.80;;
32533;SDS011;18973;48.580;8.912;2023-04-25T07:24:29;6.45;;;5.18;;
32533;SDS011;18973;48.580;8.912;2023-04-25T07:26:55;5.85;;;3.90;;
32533;SDS011;18973;48.580;8.912;2023-04-25T07:29:21;6.55;;;3.75;;
32533;SDS011;18973;48.580;8.912;2023-04-25T07:31:47;5.97;;;4.13;;
32533;SDS011;18973;48.580;8.912;2023-04-25T07:34:12;7.90;;;4.47;;
32533;SDS011;18973;48.580;8.912;2023-04-25T07:36:38;5.90;;;4.03;;
32533;SDS011;18973;48.580;8.912;2023-04-25T07:39:05;5.93;;;4.55;;
32533;SDS011;18973;48.580;8.912;2023-04-25T07:41:34;9.68;;;6.05;;
32533;SDS011;18973;48.580;8.912;2023-04-25T07:44:02;6.53;;;4.50;;
32533;SDS011;18973;48.580;8.912;2023-04-25T07:46:28;11.88;;;4.53;;
32533;SDS011;18973;48.580;8.912;2023-04-25T07:48:54;8.00;;;4.82;;
32533;SDS011;18973;48.580;8.912;2023-04-25T07:51:20;10.98;;;5.90;;
32533;SDS011;18973;48.580;8.912;2023-04-25T07:53:47;7.70;;;5.32;;
32533;SDS011;18973;48.580;8.912;2023-04-25T07:56:12;10.52;;;6.40;;
32533;SDS011;18973;48.580;8.912;2023-04-25T07:58:38;5.03;;;4.53;;
32533;SDS011;18973;48.580;8.912;2023-04-25T08:01:04;9.90;;;5.68;;
32533;SDS011;18973;48.580;8.912;2023-04-25T08:03:29;5.70;;;5.13;;
32533;SDS011;18973;48.580;8.912;2023-04-25T08:05:55;6.18;;;5.40;;
32533;SDS011;18973;48.580;8.912;2023-04-25T08:08:21;6.25;;;5.50;;
32533;SDS011;18973;48.580;8.912;2023-04-25T08:10:47;8.27;;;5.13;;
32533;SDS011;18973;48.580;8.912;2023-04-25T08:13:13;8.23;;;5.45;;
32533;SDS011;18973;48.580;8.912;2023-04-25T08:15:39;7.90;;;5.20;;
32533;SDS011;18973;48.580;8.912;2023-04-25T08:18:05;12.00;;;5.25;;
32533;SDS011;18973;48.580;8.912;2023-04-25T08:20:30;6.45;;;5.05;;
32533;SDS011;18973;48.580;8.912;2023-04-25T08:22:56;8.05;;;5.22;;
32533;SDS011;18973;48.580;8.912;2023-04-25T08:25:22;6.60;;;4.60;;
32533;SDS011;18973;48.580;8.912;2023-04-25T08:27:47;7.75;;;5.13;;
32533;SDS011;18973;48.580;8.912;2023-04-25T08:30:13;5.43;;;4.55;;
32533;SDS011;18973;48.580;8.912;2023-04-25T08:32:39;6.07;;;4.90;;
32533;SDS011;18973;48.580;8.912;2023-04-25T08:35:05;6.90;;;4.80;;
32533;SDS011;18973;48.580;8.912;2023-04-25T08:37:31;8.40;;;5.28;;
32533;SDS011;18973;48.580;8.912;2023-04-25T08:39:57;5.65;;;5.13;;
32533;SDS011;18973;48.580;8.912;2023-04-25T08:42:23;12.50;;;5.68;;
32533;SDS011;18973;48.580;8.912;2023-04-25T08:44:50;7.10;;;5.25;;
32533;SDS011;18973;48.580;8.912;2023-04-25T08:47:20;7.72;;;5.97;;
32533;SDS011;18973;48.580;8.912;2023-04-25T08:49:47;7.82;;;6.32;;
32533;SDS011;18973;48.580;8.912;2023-04-25T08:52:14;10.77;;;6.30;;
32533;SDS011;18973;48.580;8.912;2023-04-25T08:54:51;10.45;;;6.70;;
32533;SDS011;18973;48.580;8.912;2023-04-25T08:57:19;11.60;;;7.25;;
32533;SDS011;18973;48.580;8.912;2023-04-25T08:59:46;8.45;;;6.35;;
32533;SDS011;18973;48.580;8.912;2023-04-25T09:02:12;6.68;;;5.05;;
32533;SDS011;18973;48.580;8.912;2023-04-25T09:04:43;6.95;;;4.45;;
32533;SDS011;18973;48.580;8.912;2023-04-25T09:07:09;6.10;;;4.30;;
32533;SDS011;18973;48.580;8.912;2023-04-25T09:09:35;7.40;;;4.22;;
32533;SDS011;18973;48.580;8.912;2023-04-25T09:12:01;5.75;;;4.07;;
32533;SDS011;18973;48.580;8.912;2023-04-25T09:14:27;4.18;;;3.58;;
32533;SDS011;18973;48.580;8.912;2023-04-25T09:16:57;5.32;;;3.15;;
32533;SDS011;18973;48.580;8.912;2023-04-25T09:19:33;4.00;;;3.60;;
32533;SDS011;18973;48.580;8.912;2023-04-25T09:22:04;4.00;;;3.00;;
32533;SDS011;18973;48.580;8.912;2023-04-25T09:24:34;2.90;;;2.50;;
32533;SDS011;18973;48.580;8.912;2023-04-25T09:27:05;3.63;;;2.22;;
32533;SDS011;18973;48.580;8.912;2023-04-25T09:29:32;6.15;;;1.80;;
32533;SDS011;18973;48.580;8.912;2023-04-25T09:37:19;1.77;;;1.60;;
32533;SDS011;18973;48.580;8.912;2023-04-25T09:39:49;1.90;;;1.80;;
32533;SDS011;18973;48.580;8.912;2023-04-25T09:42:21;2.83;;;1.90;;
32533;SDS011;18973;48.580;8.912;2023-04-25T09:44:55;1.80;;;1.70;;
32533;SDS011;18973;48.580;8.912;2023-04-25T09:47:22;2.08;;;1.50;;
32533;SDS011;18973;48.580;8.912;2023-04-25T09:49:52;1.98;;;1.45;;
32533;SDS011;18973;48.580;8.912;2023-04-25T09:52:22;1.75;;;1.58;;
32533;SDS011;18973;48.580;8.912;2023-04-25T09:54:49;1.80;;;1.60;;
32533;SDS011;18973;48.580;8.912;2023-04-25T09:57:17;1.88;;;1.50;;
32533;SDS011;18973;48.580;8.912;2023-04-25T09:59:45;1.40;;;1.30;;
32533;SDS011;18973;48.580;8.912;2023-04-25T10:02:13;1.02;;;1.02;;
32533;SDS011;18973;48.580;8.912;2023-04-25T10:04:50;1.50;;;1.40;;
32533;SDS011;18973;48.580;8.912;2023-04-25T10:07:19;6.20;;;3.83;;
32533;SDS011;18973;48.580;8.912;2023-04-25T10:09:48;2.60;;;2.40;;
32533;SDS011;18973;48.580;8.912;2023-04-25T10:12:16;2.25;;;1.70;;
32533;SDS011;18973;48.580;8.912;2023-04-25T10:14:43;1.85;;;1.75;;
32533;SDS011;18973;48.580;8.912;2023-04-25T10:17:10;1.83;;;1.73;;
32533;SDS011;18973;48.580;8.912;2023-04-25T10:19:36;2.83;;;1.85;;
32533;SDS011;18973;48.580;8.912;2023-04-25T10:22:10;2.83;;;2.00;;
32533;SDS011;18973;48.580;8.912;2023-04-25T10:24:39;1.98;;;1.77;;
32533;SDS011;18973;48.580;8.912;2023-04-25T10:27:06;2.30;;;2.10;;
32533;SDS011;18973;48.580;8.912;2023-04-25T10:29:33;1.50;;;1.40;;
32533;SDS011;18973;48.580;8.912;2023-04-25T10:32:00;1.48;;;1.40;;
32533;SDS011;18973;48.580;8.912;2023-04-25T10:34:39;1.70;;;1.60;;
32533;SDS011;18973;48.580;8.912;2023-04-25T10:37:05;3.30;;;2.10;;
32533;SDS011;18973;48.580;8.912;2023-04-25T10:39:34;2.45;;;2.25;;
32533;SDS011;18973;48.580;8.912;2023-04-25T10:42:01;1.40;;;1.38;;
32533;SDS011;18973;48.580;8.912;2023-04-25T10:44:28;2.35;;;1.75;;
32533;SDS011;18973;48.580;8.912;2023-04-25T10:46:58;1.50;;;1.40;;
32533;SDS011;18973;48.580;8.912;2023-04-25T10:52:10;2.72;;;1.50;;
32533;SDS011;18973;48.580;8.912;2023-04-25T10:54:50;2.10;;;1.60;;
32533;SDS011;18973;48.580;8.912;2023-04-25T11:00:16;1.17;;;1.13;;
32533;SDS011;18973;48.580;8.912;2023-04-25T11:02:45;1.30;;;1.20;;
32533;SDS011;18973;48.580;8.912;2023-04-25T11:08:00;1.40;;;1.30;;
32533;SDS011;18973;48.580;8.912;2023-04-25T11:10:32;1.75;;;1.65;;
32533;SDS011;18973;48.580;8.912;2023-04-25T11:13:00;1.13;;;1.08;;
32533;SDS011;18973;48.580;8.912;2023-04-25T11:15:26;2.95;;;1.30;;
32533;SDS011;18973;48.580;8.912;2023-04-25T11:17:52;1.27;;;1.17;;
32533;SDS011;18973;48.580;8.912;2023-04-25T11:20:19;1.08;;;1.08;;
32533;SDS011;18973;48.580;8.912;2023-04-25T11:22:45;1.83;;;1.20;;
32533;SDS011;18973;48.580;8.912;2023-04-25T11:25:14;2.10;;;1.10;;
32533;SDS011;18973;48.580;8.912;2023-04-25T11:30:21;1.17;;;1.08;;
32533;SDS011;18973;48.580;8.912;2023-04-25T11:32:48;2.35;;;1.30;;
32533;SDS011;18973;48.580;8.912;2023-04-25T11:35:15;1.00;;;1.00;;
32533;SDS011;18973;48.580;8.912;2023-04-25T11:37:41;1.30;;;1.20;;
32533;SDS011;18973;48.580;8.912;2023-04-25T11:40:08;1.60;;;1.50;;
32533;SDS011;18973;48.580;8.912;2023-04-25T11:42:45;1.95;;;1.55;;
32533;SDS011;18973;48.580;8.912;2023-04-25T11:45:12;1.88;;;1.02;;
32533;SDS011;18973;48.580;8.912;2023-04-25T11:47:38;1.25;;;1.15;;
32533;SDS011;18973;48.580;8.912;2023-04-25T11:50:05;3.97;;;1.55;;
32533;SDS011;18973;48.580;8.912;2023-04-25T11:52:36;1.98;;;1.60;;
32533;SDS011;18973;48.580;8.912;2023-04-25T11:55:07;8.05;;;4.53;;
32533;SDS011;18973;48.580;8.912;2023-04-25T11:57:41;4.82;;;1.40;;
32533;SDS011;18973;48.580;8.912;2023-04-25T12:00:09;2.60;;;1.50;;
32533;SDS011;18973;48.580;8.912;2023-04-25T12:02:52;3.95;;;3.47;;
32533;SDS011;18973;48.580;8.912;2023-04-25T12:05:19;3.50;;;2.65;;
32533;SDS011;18973;48.580;8.912;2023-04-25T12:07:46;1.20;;;1.10;;
32533;SDS011;18973;48.580;8.912;2023-04-25T12:10:12;5.00;;;3.58;;
32533;SDS011;18973;48.580;8.912;2023-04-25T12:12:43;8.38;;;4.13;;
32533;SDS011;18973;48.580;8.912;2023-04-25T12:15:10;4.72;;;3.53;;
32533;SDS011;18973;48.580;8.912;2023-04-25T12:17:40;5.43;;;2.90;;
32533;SDS011;18973;48.580;8.912;2023-04-25T12:20:07;2.83;;;2.63;;
32533;SDS011;18973;48.580;8.912;2023-04-25T12:22:34;3.95;;;2.47;;
32533;SDS011;18973;48.580;8.912;2023-04-25T12:25:01;4.75;;;3.05;;
32533;SDS011;18973;48.580;8.912;2023-04-25T12:27:30;2.60;;;2.40;;
32533;SDS011;18973;48.580;8.912;2023-04-25T12:29:56;3.33;;;3.03;;
32533;SDS011;18973;48.580;8.912;2023-04-25T12:32:23;5.85;;;3.05;;
32533;SDS011;18973;48.580;8.912;2023-04-25T12:34:49;2.80;;;2.60;;
32533;SDS011;18973;48.580;8.912;2023-04-25T12:37:14;2.85;;;2.65;;
32533;SDS011;18973;48.580;8.912;2023-04-25T12:39:40;3.28;;;2.97;;
32533;SDS011;18973;48.580;8.912;2023-04-25T12:42:06;4.18;;;3.42;;
32533;SDS011;18973;48.580;8.912;2023-04-25T12:44:38;5.40;;;4.25;;
32533;SDS011;18973;48.580;8.912;2023-04-25T12:47:05;3.13;;;2.85;;
32533;SDS011;18973;48.580;8.912;2023-04-25T12:49:31;3.50;;;3.20;;
32533;SDS011;18973;48.580;8.912;2023-04-25T12:51:57;4.10;;;3.60;;
32533;SDS011;18973;48.580;8.912;2023-04-25T12:54:23;4.18;;;3.78;;
32533;SDS011;18973;48.580;8.912;2023-04-25T12:56:50;4.40;;;3.20;;
32533;SDS011;18973;48.580;8.912;2023-04-25T12:59:16;3.42;;;2.85;;
32533;SDS011;18973;48.580;8.912;2023-04-25T13:01:42;5.68;;;3.58;;
32533;SDS011;18973;48.580;8.912;2023-04-25T13:04:07;4.57;;;3.67;;
32533;SDS011;18973;48.580;8.912;2023-04-25T13:06:33;3.67;;;3.05;;
32533;SDS011;18973;48.580;8.912;2023-04-25T13:08:59;4.45;;;3.40;;
32533;SDS011;18973;48.580;8.912;2023-04-25T13:11:25;4.18;;;3.33;;
32533;SDS011;18973;48.580;8.912;2023-04-25T13:13:51;3.80;;;3.40;;
32533;SDS011;18973;48.580;8.912;2023-04-25T13:16:16;4.07;;;3.67;;
32533;SDS011;18973;48.580;8.912;2023-04-25T13:18:43;5.38;;;3.08;;
32533;SDS011;18973;48.580;8.912;2023-04-25T13:21:09;4.40;;;3.83;;
32533;SDS011;18973;48.580;8.912;2023-04-25T13:23:36;6.90;;;3.80;;
32533;SDS011;18973;48.580;8.912;2023-04-25T13:26:05;4.28;;;3.88;;
32533;SDS011;18973;48.580;8.912;2023-04-25T13:28:31;8.45;;;5.72;;
32533;SDS011;18973;48.580;8.912;2023-04-25T13:30:57;6.05;;;4.60;;
32533;SDS011;18973;48.580;8.912;2023-04-25T13:33:23;6.80;;;5.40;;
32533;SDS011;18973;48.580;8.912;2023-04-25T13:35:48;6.68;;;5.15;;
32533;SDS011;18973;48.580;8.912;2023-04-25T13:38:24;7.00;;;5.13;;
32533;SDS011;18973;48.580;8.912;2023-04-25T13:40:50;4.45;;;3.42;;
32533;SDS011;18973;48.580;8.912;2023-04-25T13:43:19;4.85;;;4.03;;
32533;SDS011;18973;48.580;8.912;2023-04-25T13:45:46;3.45;;;3.15;;
32533;SDS011;18973;48.580;8.912;2023-04-25T13:48:13;6.68;;;4.82;;
32533;SDS011;18973;48.580;8.912;2023-04-25T13:50:39;3.17;;;2.83;;
32533;SDS011;18973;48.580;8.912;2023-04-25T13:53:04;4.00;;;2.47;;
32533;SDS011;18973;48.580;8.912;2023-04-25T13:55:30;3.22;;;2.80;;
32533;SDS011;18973;48.580;8.912;2023-04-25T13:57:56;5.53;;;3.28;;
32533;SDS011;18973;48.580;8.912;2023-04-25T14:00:22;4.80;;;3.38;;
32533;SDS011;18973;48.580;8.912;2023-04-25T14:02:48;5.18;;;3.85;;
32533;SDS011;18973;48.580;8.912;2023-04-25T14:05:14;9.20;;;3.60;;
32533;SDS011;18973;48.580;8.912;2023-04-25T14:07:40;6.22;;;2.70;;
32533;SDS011;18973;48.580;8.912;2023-04-25T14:10:06;3.63;;;2.53;;
32533;SDS011;18973;48.580;8.912;2023-04-25T14:12:32;3.78;;;3.38;;
32533;SDS011;18973;48.580;8.912;2023-04-25T14:14:58;4.75;;;3.15;;
32533;SDS011;18973;48.580;8.912;2023-04-25T14:17:23;5.53;;;3.92;;
32533;SDS011;18973;48.580;8.912;2023-04-25T14:19:49;5.28;;;4.20;;
32533;SDS011;18973;48.580;8.912;2023-04-25T14:22:15;3.95;;;3.33;;
32533;SDS011;18973;48.580;8.912;2023-04-25T14:24:41;4.30;;;3.22;;
32533;SDS011;18973;48.580;8.912;2023-04-25T14:27:07;8.18;;;3.78;;
32533;SDS011;18973;48.580;8.912;2023-04-25T14:29:33;5.25;;;3.95;;
32533;SDS011;18973;48.580;8.912;2023-04-25T14:31:58;4.10;;;3.70;;
32533;SDS011;18973;48.580;8.912;2023-04-25T14:34:25;4.63;;;3.78;;
32533;SDS011;18973;48.580;8.912;2023-04-25T14:36:51;4.00;;;3.00;;
32533;SDS011;18973;48.580;8.912;2023-04-25T14:39:17;2.47;;;2.28;;
32533;SDS011;18973;48.580;8.912;2023-04-25T14:41:43;2.88;;;2.25;;
32533;SDS011;18973;48.580;8.912;2023-04-25T14:44:09;3.03;;;2.65;;
32533;SDS011;18973;48.580;8.912;2023-04-25T14:46:35;4.75;;;2.83;;
32533;SDS011;18973;48.580;8.912;2023-04-25T14:49:01;3.35;;;2.40;;
32533;SDS011;18973;48.580;8.912;2023-04-25T14:51:28;2.72;;;2.33;;
32533;SDS011;18973;48.580;8.912;2023-04-25T14:53:54;3.85;;;2.30;;
32533;SDS011;18973;48.580;8.912;2023-04-25T14:56:20;2.80;;;2.60;;
32533;SDS011;18973;48.580;8.912;2023-04-25T14:58:46;2.95;;;2.67;;
32533;SDS011;18973;48.580;8.912;2023-04-25T15:01:12;5.60;;;2.72;;